createdAt,value
2023-05-20T00:02:27.928Z,92.58
2023-05-20T00:05:01.073Z,92.82
2023-05-20T00:07:34.147Z,92.63
2023-05-20T00:10:08.589Z,92.20
2023-05-20T00:12:42.989Z,92.86
2023-05-20T00:15:17.589Z,92.07
2023-05-20T00:17:50.795Z,92.53
2023-05-20T00:20:23.898Z,93.02
2023-05-20T00:22:56.978Z,93.42
2023-05-20T00:25:31.691Z,93.22
2023-05-20T00:28:07.504Z,93.57
2023-05-20T00:30:41.922Z,93.95
2023-05-20T00:33:15.037Z,93.32
2023-05-20T00:35:48.087Z,93.55
2023-05-20T00:38:21.187Z,92.79
2023-05-20T00:40:54.240Z,93.57
2023-05-20T00:43:28.993Z,93.85
2023-05-20T00:46:02.966Z,93.98
2023-05-20T00:48:42.372Z,94.04
2023-05-20T00:51:15.957Z,95.15
2023-05-20T00:53:49.184Z,94.51
2023-05-20T00:56:22.908Z,95.18
2023-05-20T00:58:57.571Z,95.12
2023-05-20T01:01:30.718Z,94.96
2023-05-20T01:04:04.437Z,94.88
2023-05-20T01:06:38.965Z,95.67
2023-05-20T01:09:12.087Z,95.49
2023-05-20T01:11:52.989Z,95.72
2023-05-20T01:14:31.320Z,95.71
2023-05-20T01:17:11.165Z,95.20
2023-05-20T01:19:45.683Z,95.75
2023-05-20T01:22:18.779Z,95.83
2023-05-20T01:24:53.904Z,95.90
2023-05-20T01:27:27.072Z,96.41
2023-05-20T01:30:00.323Z,96.25
2023-05-20T01:32:38.723Z,96.61
2023-05-20T01:35:12.397Z,96.96
2023-05-20T01:37:46.421Z,96.98
2023-05-20T01:40:21.206Z,97.04
2023-05-20T01:42:55.896Z,96.80
2023-05-20T01:45:29.050Z,96.95
2023-05-20T01:48:03.591Z,97.16
2023-05-20T01:50:36.659Z,97.40
2023-05-20T01:53:09.766Z,97.66
2023-05-20T01:55:44.206Z,97.84
2023-05-20T01:58:17.273Z,97.85
2023-05-20T02:00:50.520Z,98.14
2023-05-20T02:03:23.786Z,97.70
2023-05-20T02:05:57.051Z,98.11
2023-05-20T02:08:30.137Z,97.64
2023-05-20T02:11:04.597Z,98.12
2023-05-20T02:13:37.616Z,98.24
2023-05-20T02:16:10.775Z,98.43
2023-05-20T02:18:44.050Z,98.39
2023-05-20T02:21:17.150Z,98.33
2023-05-20T02:23:50.425Z,98.31
2023-05-20T02:26:25.266Z,98.28
2023-05-20T02:28:58.335Z,98.12
2023-05-20T02:31:31.446Z,98.53
2023-05-20T02:34:05.042Z,98.34
2023-05-20T02:36:38.193Z,98.52
2023-05-20T02:39:11.586Z,98.91
2023-05-20T02:41:45.976Z,99.18
2023-05-20T02:44:19.095Z,99.14
2023-05-20T02:46:52.191Z,98.79
2023-05-20T02:49:25.405Z,99.14
2023-05-20T02:51:58.477Z,99.32
2023-05-20T02:54:31.488Z,99.64
2023-05-20T02:57:06.424Z,99.85
2023-05-20T02:59:39.628Z,99.52
2023-05-20T03:02:12.694Z,99.68
2023-05-20T03:04:47.339Z,100.00
2023-05-20T03:07:21.646Z,99.90
2023-05-20T03:09:54.837Z,99.95
2023-05-20T03:12:29.259Z,99.96
2023-05-20T03:15:02.305Z,100.00
2023-05-20T03:17:35.752Z,99.28
2023-05-20T03:20:10.742Z,99.67
2023-05-20T03:22:43.823Z,99.77
2023-05-20T03:25:16.900Z,99.33
2023-05-20T03:27:51.524Z,99.07
2023-05-20T03:30:25.126Z,99.39
2023-05-20T03:32:58.729Z,99.28
2023-05-20T03:35:32.046Z,98.86
2023-05-20T03:38:05.371Z,98.61
2023-05-20T03:40:38.471Z,99.48
2023-05-20T03:43:12.875Z,99.54
2023-05-20T03:45:46.081Z,99.47
2023-05-20T03:48:20.159Z,99.98
2023-05-20T03:50:53.257Z,99.37
2023-05-20T03:53:26.470Z,99.45
2023-05-20T03:55:59.560Z,99.72
2023-05-20T03:58:34.005Z,99.58
2023-05-20T04:01:07.122Z,100.00
2023-05-20T04:03:42.304Z,100.00
2023-05-20T04:06:16.023Z,100.00
2023-05-20T04:08:49.136Z,100.00
2023-05-20T04:11:22.469Z,99.73
2023-05-20T04:13:56.889Z,100.00
2023-05-20T04:16:30.500Z,100.00
2023-05-20T04:19:03.591Z,99.67
2023-05-20T04:21:36.700Z,99.60
2023-05-20T04:24:09.743Z,98.81
2023-05-20T04:26:43.163Z,98.56
2023-05-20T04:29:18.858Z,98.59
2023-05-20T04:31:52.169Z,98.01
2023-05-20T04:34:26.944Z,97.59
2023-05-20T04:37:00.371Z,96.94
2023-05-20T04:39:33.423Z,97.02
2023-05-20T04:42:07.189Z,96.89
2023-05-20T04:44:42.419Z,96.66
2023-05-20T04:47:15.730Z,95.23
2023-05-20T04:49:50.310Z,95.80
2023-05-20T04:52:23.582Z,95.07
2023-05-20T04:54:58.236Z,94.99
2023-05-20T04:57:31.323Z,94.17
2023-05-20T05:00:08.014Z,93.46
2023-05-20T05:02:41.465Z,91.82
2023-05-20T05:05:14.645Z,91.71
2023-05-20T05:07:47.689Z,90.39
2023-05-20T05:10:21.956Z,90.72
2023-05-20T05:12:55.042Z,88.93
2023-05-20T05:15:29.921Z,87.80
2023-05-20T05:18:03.364Z,87.18
2023-05-20T05:20:36.506Z,86.86
2023-05-20T05:23:09.713Z,86.55
2023-05-20T05:25:42.855Z,84.88
2023-05-20T05:28:16.000Z,84.26
2023-05-20T05:30:50.721Z,83.15
2023-05-20T05:33:23.859Z,83.68
2023-05-20T05:35:59.099Z,82.16
2023-05-20T05:38:32.502Z,79.47
2023-05-20T05:41:05.643Z,77.61
2023-05-20T05:43:39.102Z,75.98
2023-05-20T05:46:13.700Z,73.16
2023-05-20T05:48:49.213Z,71.30
2023-05-20T05:51:22.532Z,69.26
2023-05-20T05:53:56.146Z,68.53
2023-05-20T05:56:29.240Z,66.63
2023-05-20T05:59:02.494Z,65.55
2023-05-20T06:01:37.474Z,64.92
2023-05-20T06:04:10.833Z,63.66
2023-05-20T06:06:44.075Z,61.94
2023-05-20T06:09:17.203Z,62.49
2023-05-20T06:11:50.493Z,60.92
2023-05-20T06:14:23.984Z,58.97
2023-05-20T06:16:58.643Z,58.78
2023-05-20T06:19:31.889Z,57.17
2023-05-20T06:22:05.643Z,56.78
2023-05-20T06:24:38.842Z,57.39
2023-05-20T06:27:12.207Z,59.36
2023-05-20T06:29:45.368Z,61.14
2023-05-20T06:32:19.927Z,62.75
2023-05-20T06:34:53.089Z,62.85
2023-05-20T06:37:26.323Z,64.06
2023-05-20T06:39:59.517Z,65.35
2023-05-20T06:42:32.638Z,67.52
2023-05-20T06:45:06.950Z,69.16
2023-05-20T06:47:41.430Z,68.06
2023-05-20T06:50:14.655Z,68.76
2023-05-20T06:52:47.759Z,69.96
2023-05-20T06:55:21.096Z,71.65
2023-05-20T06:57:55.274Z,71.58
2023-05-20T07:00:28.303Z,70.41
2023-05-20T07:03:02.851Z,69.17
2023-05-20T07:05:38.701Z,70.07
2023-05-20T07:08:12.298Z,70.68
2023-05-20T07:10:46.536Z,70.69
2023-05-20T07:13:19.884Z,70.85
2023-05-20T07:15:53.216Z,70.01
2023-05-20T07:18:28.472Z,69.57
2023-05-20T07:21:01.513Z,69.30
2023-05-20T07:23:34.599Z,67.06
2023-05-20T07:26:07.719Z,66.18
2023-05-20T07:28:40.872Z,67.28
2023-05-20T07:31:14.432Z,66.80
2023-05-20T07:33:48.794Z,69.31
2023-05-20T07:36:21.891Z,67.67
2023-05-20T07:39:02.474Z,67.82
2023-05-20T07:41:37.411Z,67.62
2023-05-20T07:44:11.281Z,66.77
2023-05-20T07:46:44.568Z,65.94
2023-05-20T07:49:18.998Z,64.50
2023-05-20T07:51:52.107Z,64.21
2023-05-20T07:54:25.288Z,60.60
2023-05-20T07:57:00.269Z,57.46
2023-05-20T07:59:33.284Z,54.91
2023-05-20T08:02:07.080Z,55.25
2023-05-20T08:04:41.553Z,52.73
2023-05-20T08:07:14.578Z,52.96
2023-05-20T08:09:47.628Z,53.77
2023-05-20T08:12:20.807Z,54.11
2023-05-20T08:14:55.487Z,53.55
2023-05-20T08:17:28.555Z,53.29
2023-05-20T08:20:03.305Z,54.37
2023-05-20T08:22:37.568Z,55.94
2023-05-20T08:25:11.445Z,56.91
2023-05-20T08:27:44.598Z,56.82
2023-05-20T08:30:17.669Z,56.82
2023-05-20T08:32:50.839Z,56.49
2023-05-20T08:35:25.694Z,55.27
2023-05-20T08:37:58.891Z,56.29
2023-05-20T08:40:32.051Z,56.86
2023-05-20T08:43:06.011Z,56.82
2023-05-20T08:45:40.153Z,57.82
2023-05-20T08:48:13.776Z,56.80
2023-05-20T08:50:52.866Z,56.83
2023-05-20T08:53:26.671Z,56.52
2023-05-20T08:56:02.787Z,55.35
2023-05-20T08:58:36.008Z,53.81
2023-05-20T09:01:09.518Z,55.19
2023-05-20T09:03:43.514Z,55.18
2023-05-20T09:06:20.153Z,55.36
2023-05-20T09:08:53.265Z,54.79
2023-05-20T09:11:27.275Z,55.26
2023-05-20T09:14:00.337Z,54.11
2023-05-20T09:16:33.418Z,53.62
2023-05-20T09:19:09.806Z,50.81
2023-05-20T09:21:44.310Z,51.53
2023-05-20T09:24:24.071Z,50.66
2023-05-20T09:26:57.715Z,51.28
2023-05-20T09:29:35.030Z,51.24
2023-05-20T09:32:08.834Z,51.20
2023-05-20T09:34:43.043Z,50.96
2023-05-20T09:37:20.402Z,50.54
2023-05-20T09:39:59.548Z,50.22
2023-05-20T09:42:41.556Z,51.56
2023-05-20T09:45:14.615Z,51.25
2023-05-20T09:47:48.282Z,51.52
2023-05-20T09:50:23.351Z,51.06
2023-05-20T09:52:57.788Z,52.15
2023-05-20T09:55:32.008Z,51.36
2023-05-20T09:58:05.213Z,51.15
2023-05-20T10:00:38.455Z,50.68
2023-05-20T10:03:11.743Z,49.58
2023-05-20T10:05:56.475Z,50.34
2023-05-20T10:08:51.428Z,50.21
2023-05-20T10:11:34.258Z,49.67
2023-05-20T10:14:27.484Z,50.71
2023-05-20T10:17:10.828Z,51.09
2023-05-20T10:19:44.884Z,49.98
2023-05-20T10:22:29.102Z,50.14
2023-05-20T10:25:11.067Z,49.63
2023-05-20T10:27:45.541Z,48.80
2023-05-20T10:30:21.233Z,48.34
2023-05-20T10:32:57.438Z,49.22
2023-05-20T10:35:30.887Z,49.34
2023-05-20T10:38:13.001Z,50.03
2023-05-20T10:40:47.396Z,50.22
2023-05-20T10:43:28.865Z,48.92
2023-05-20T10:46:04.855Z,46.90
2023-05-20T10:48:44.262Z,47.40
2023-05-20T10:51:17.979Z,47.71
2023-05-20T10:53:56.133Z,47.18
2023-05-20T10:56:30.727Z,47.04
2023-05-20T10:59:04.023Z,49.04
2023-05-20T11:01:37.159Z,49.07
2023-05-20T11:04:12.226Z,49.54
2023-05-20T11:06:53.627Z,48.75
2023-05-20T11:09:26.743Z,48.65
2023-05-20T11:12:01.729Z,47.58
2023-05-20T11:14:36.507Z,46.64
2023-05-20T11:17:09.716Z,47.48
2023-05-20T11:19:43.050Z,47.07
2023-05-20T11:22:16.655Z,48.47
2023-05-20T11:24:49.745Z,47.71
2023-05-20T11:27:24.103Z,47.86
2023-05-20T11:29:57.558Z,48.00
2023-05-20T11:32:30.738Z,48.08
2023-05-20T11:35:04.908Z,48.47
2023-05-20T11:37:37.903Z,46.97
2023-05-20T11:40:13.268Z,46.67
2023-05-20T11:42:47.732Z,46.65
2023-05-20T11:45:20.767Z,47.10
2023-05-20T11:48:01.874Z,46.21
2023-05-20T11:50:39.381Z,46.33
2023-05-20T11:53:17.858Z,46.30
2023-05-20T11:55:52.732Z,46.34
2023-05-20T11:58:30.141Z,47.10
2023-05-20T12:01:17.925Z,46.87
2023-05-20T12:03:55.366Z,46.14
2023-05-20T12:06:29.394Z,45.72
2023-05-20T12:09:06.881Z,45.36
2023-05-20T12:11:42.192Z,45.49
2023-05-20T12:14:16.829Z,45.28
2023-05-20T12:16:49.867Z,44.38
2023-05-20T12:19:22.942Z,44.45
2023-05-20T12:21:56.000Z,44.52
2023-05-20T12:24:29.033Z,43.77
2023-05-20T12:27:04.066Z,43.24
2023-05-20T12:29:38.401Z,43.90
2023-05-20T12:32:11.416Z,44.22
2023-05-20T12:34:44.429Z,44.48
2023-05-20T12:37:17.589Z,44.79
2023-05-20T12:39:50.642Z,44.49
2023-05-20T12:42:23.633Z,42.80
2023-05-20T12:44:57.961Z,43.38
2023-05-20T12:47:31.162Z,43.58
2023-05-20T12:50:05.114Z,44.21
2023-05-20T12:52:38.116Z,44.21
2023-05-20T12:55:13.816Z,43.98
2023-05-20T12:57:48.754Z,43.54
2023-05-20T13:00:23.191Z,43.17
2023-05-20T13:02:56.346Z,41.95
2023-05-20T13:05:29.461Z,42.75
2023-05-20T13:08:02.493Z,43.38
2023-05-20T13:10:35.937Z,43.98
2023-05-20T13:13:09.266Z,42.72
2023-05-20T13:15:43.607Z,42.25
2023-05-20T13:18:17.340Z,40.87
2023-05-20T13:20:50.520Z,41.93
2023-05-20T13:23:23.555Z,42.75
2023-05-20T13:25:56.598Z,41.76
2023-05-20T13:28:29.629Z,41.34
2023-05-20T13:31:07.849Z,41.06
2023-05-20T13:33:40.925Z,42.08
2023-05-20T13:36:14.911Z,42.01
2023-05-20T13:38:47.916Z,41.71
2023-05-20T13:41:21.042Z,42.26
2023-05-20T13:43:54.559Z,42.04
2023-05-20T13:46:28.966Z,41.95
2023-05-20T13:49:02.085Z,40.55
2023-05-20T13:51:35.115Z,41.40
2023-05-20T13:54:08.156Z,41.89
2023-05-20T13:56:41.274Z,42.79
2023-05-20T13:59:14.319Z,42.82
2023-05-20T14:01:48.703Z,43.21
2023-05-20T14:04:22.255Z,43.12
2023-05-20T14:06:55.655Z,43.73
2023-05-20T14:09:28.700Z,44.30
2023-05-20T14:12:01.926Z,44.17
2023-05-20T14:14:35.315Z,44.30
2023-05-20T14:17:09.750Z,43.35
2023-05-20T14:19:43.277Z,42.32
2023-05-20T14:22:16.368Z,42.05
2023-05-20T14:24:49.400Z,43.49
2023-05-20T14:27:22.443Z,42.94
2023-05-20T14:29:55.450Z,42.88
2023-05-20T14:32:30.093Z,41.61
2023-05-20T14:35:03.342Z,41.56
2023-05-20T14:37:36.364Z,41.78
2023-05-20T14:40:10.796Z,42.51
2023-05-20T14:42:43.888Z,42.99
2023-05-20T14:45:17.094Z,43.47
2023-05-20T14:47:51.676Z,44.12
2023-05-20T14:50:24.814Z,43.97
2023-05-20T14:52:57.826Z,44.67
2023-05-20T14:55:30.882Z,44.67
2023-05-20T14:58:04.016Z,44.17
2023-05-20T15:00:37.304Z,44.19
2023-05-20T15:03:12.576Z,44.32
2023-05-20T15:05:45.824Z,44.28
2023-05-20T15:08:19.166Z,45.25
2023-05-20T15:10:52.205Z,44.53
2023-05-20T15:13:25.249Z,44.39
2023-05-20T15:15:58.346Z,45.08
2023-05-20T15:18:32.763Z,43.66
2023-05-20T15:21:06.577Z,43.69
2023-05-20T15:23:39.635Z,44.55
2023-05-20T15:26:12.894Z,44.64
2023-05-20T15:28:46.119Z,43.88
2023-05-20T15:31:19.514Z,43.42
2023-05-20T15:33:54.018Z,43.10
2023-05-20T15:36:27.164Z,43.64
2023-05-20T15:39:00.242Z,43.81
2023-05-20T15:41:33.823Z,43.21
2023-05-20T15:44:06.881Z,42.75
2023-05-20T15:46:39.995Z,42.26
2023-05-20T15:49:14.472Z,42.70
2023-05-20T15:51:59.121Z,42.72
2023-05-20T15:54:35.782Z,42.01
2023-05-20T15:57:08.834Z,41.87
2023-05-20T15:59:41.870Z,41.40
2023-05-20T16:02:14.982Z,41.22
2023-05-20T16:04:49.459Z,41.60
2023-05-20T16:07:22.471Z,42.41
2023-05-20T16:09:55.678Z,41.75
2023-05-20T16:12:28.821Z,41.75
2023-05-20T16:15:02.136Z,42.30
2023-05-20T16:17:35.242Z,42.57
2023-05-20T16:20:10.983Z,42.75
2023-05-20T16:22:44.047Z,43.30
2023-05-20T16:25:17.263Z,42.79
2023-05-20T16:27:50.425Z,43.02
2023-05-20T16:30:23.453Z,43.21
2023-05-20T16:32:56.625Z,43.38
2023-05-20T16:35:31.069Z,42.69
2023-05-20T16:38:04.199Z,42.26
2023-05-20T16:40:37.244Z,42.17
2023-05-20T16:43:10.397Z,41.71
2023-05-20T16:45:43.627Z,41.19
2023-05-20T16:48:16.780Z,41.38
2023-05-20T16:50:51.266Z,41.68
2023-05-20T16:53:24.409Z,40.60
2023-05-20T16:55:57.479Z,41.80
2023-05-20T16:58:31.118Z,41.00
2023-05-20T17:01:04.421Z,41.59
2023-05-20T17:03:37.575Z,41.54
2023-05-20T17:06:12.475Z,41.32
2023-05-20T17:08:45.512Z,41.57
2023-05-20T17:11:18.699Z,42.64
2023-05-20T17:13:51.823Z,42.68
2023-05-20T17:16:24.941Z,42.58
2023-05-20T17:18:58.729Z,42.89
2023-05-20T17:21:34.595Z,43.04
2023-05-20T17:24:08.222Z,43.57
2023-05-20T17:26:41.397Z,43.64
2023-05-20T17:29:14.435Z,42.94
2023-05-20T17:31:47.869Z,42.98
2023-05-20T17:34:23.894Z,43.15
2023-05-20T17:37:04.421Z,42.89
2023-05-20T17:39:37.430Z,42.68
2023-05-20T17:42:10.907Z,42.91
2023-05-20T17:44:43.978Z,42.86
2023-05-20T17:47:17.183Z,43.30
2023-05-20T17:49:50.616Z,43.24
2023-05-20T17:52:25.217Z,43.15
2023-05-20T17:54:58.288Z,43.73
2023-05-20T17:57:31.299Z,43.89
2023-05-20T18:00:06.526Z,44.28
2023-05-20T18:02:39.721Z,43.79
2023-05-20T18:05:13.645Z,43.70
2023-05-20T18:07:48.016Z,44.34
2023-05-20T18:10:21.087Z,44.69
2023-05-20T18:12:54.086Z,45.04
2023-05-20T18:15:27.090Z,45.62
2023-05-20T18:18:00.508Z,46.11
2023-05-20T18:20:33.699Z,45.86
2023-05-20T18:23:08.150Z,45.81
2023-05-20T18:25:42.735Z,45.98
2023-05-20T18:28:21.089Z,45.92
2023-05-20T18:30:55.514Z,46.62
2023-05-20T18:33:28.583Z,47.41
2023-05-20T18:36:01.811Z,47.45
2023-05-20T18:38:37.075Z,47.84
2023-05-20T18:41:11.178Z,48.14
2023-05-20T18:43:44.167Z,48.59
2023-05-20T18:46:18.157Z,49.48
2023-05-20T18:48:51.281Z,49.86
2023-05-20T18:51:25.741Z,49.55
2023-05-20T18:54:00.554Z,49.66
2023-05-20T18:56:34.046Z,50.09
2023-05-20T18:59:07.606Z,50.61
2023-05-20T19:01:41.329Z,50.86
2023-05-20T19:04:14.382Z,50.68
2023-05-20T19:06:48.090Z,51.22
2023-05-20T19:09:22.621Z,50.88
2023-05-20T19:11:58.890Z,51.42
2023-05-20T19:14:32.004Z,51.50
2023-05-20T19:17:05.441Z,51.65
2023-05-20T19:19:38.612Z,52.08
2023-05-20T19:22:11.697Z,52.36
2023-05-20T19:24:46.076Z,52.31
2023-05-20T19:27:19.128Z,52.84
2023-05-20T19:29:52.177Z,52.99
2023-05-20T19:32:25.392Z,53.32
2023-05-20T19:34:58.438Z,54.47
2023-05-20T19:37:32.429Z,54.37
2023-05-20T19:40:09.119Z,54.73
2023-05-20T19:42:42.135Z,53.97
2023-05-20T19:45:15.433Z,54.87
2023-05-20T19:47:48.592Z,55.77
2023-05-20T19:50:21.843Z,56.15
2023-05-20T19:52:54.880Z,57.38
2023-05-20T19:55:29.290Z,57.49
2023-05-20T19:58:02.319Z,57.52
2023-05-20T20:00:36.164Z,57.88
2023-05-20T20:03:09.623Z,58.69
2023-05-20T20:05:43.241Z,59.37
2023-05-20T20:08:17.016Z,59.89
2023-05-20T20:10:51.468Z,60.51
2023-05-20T20:13:24.702Z,61.29
2023-05-20T20:15:58.731Z,61.96
2023-05-20T20:18:32.961Z,62.54
2023-05-20T20:21:06.483Z,62.37
2023-05-20T20:23:40.254Z,62.42
2023-05-20T20:26:15.987Z,62.86
2023-05-20T20:28:49.094Z,63.65
2023-05-20T20:31:22.318Z,64.34
2023-05-20T20:33:55.449Z,65.27
2023-05-20T20:36:32.185Z,66.18
2023-05-20T20:39:05.442Z,66.89
2023-05-20T20:41:39.846Z,67.68
2023-05-20T20:44:16.685Z,67.86
2023-05-20T20:46:51.391Z,68.18
2023-05-20T20:49:25.796Z,68.63
2023-05-20T20:52:01.131Z,68.93
2023-05-20T20:54:34.203Z,69.14
2023-05-20T20:57:09.107Z,68.97
2023-05-20T20:59:47.514Z,69.46
2023-05-20T21:02:20.788Z,69.48
2023-05-20T21:05:02.000Z,69.83
2023-05-20T21:07:39.091Z,70.12
2023-05-20T21:10:17.838Z,71.01
2023-05-20T21:12:57.296Z,70.58
2023-05-20T21:15:30.375Z,70.85
2023-05-20T21:18:03.587Z,71.79
2023-05-20T21:20:36.641Z,71.21
2023-05-20T21:23:09.704Z,71.97
2023-05-20T21:25:43.994Z,72.49
2023-05-20T21:28:18.578Z,73.23
2023-05-20T21:30:51.701Z,73.11
2023-05-20T21:33:24.772Z,72.73
2023-05-20T21:35:58.421Z,73.93
2023-05-20T21:38:31.557Z,74.33
2023-05-20T21:41:04.673Z,74.80
2023-05-20T21:43:39.222Z,74.75
2023-05-20T21:46:13.379Z,75.00
2023-05-20T21:48:46.542Z,75.78
2023-05-20T21:51:19.624Z,75.98
2023-05-20T21:53:52.690Z,76.91
2023-05-20T21:56:26.359Z,76.43
2023-05-20T21:59:00.747Z,77.43
2023-05-20T22:01:34.017Z,78.21
2023-05-20T22:04:07.767Z,79.25
2023-05-20T22:06:41.082Z,79.20
2023-05-20T22:09:14.283Z,79.34
2023-05-20T22:11:48.085Z,79.12
2023-05-20T22:14:23.558Z,79.25
2023-05-20T22:16:58.518Z,78.92
2023-05-20T22:19:31.664Z,78.29
2023-05-20T22:22:05.271Z,78.70
2023-05-20T22:24:38.298Z,79.40
2023-05-20T22:27:11.458Z,78.97
2023-05-20T22:29:46.202Z,79.91
2023-05-20T22:32:19.482Z,80.61
2023-05-20T22:34:53.490Z,81.22
2023-05-20T22:37:28.814Z,80.98
2023-05-20T22:40:02.238Z,81.76
2023-05-20T22:42:35.534Z,82.12
2023-05-20T22:45:11.671Z,82.47
2023-05-20T22:47:44.893Z,82.80
2023-05-20T22:50:18.189Z,82.93
2023-05-20T22:52:51.363Z,82.94
2023-05-20T22:55:24.857Z,82.70
2023-05-20T22:57:57.966Z,83.18
2023-05-20T23:00:32.331Z,83.00
2023-05-20T23:03:05.951Z,84.13
2023-05-20T23:05:39.125Z,84.04
2023-05-20T23:08:12.219Z,83.54
2023-05-20T23:10:45.300Z,83.64
2023-05-20T23:13:18.373Z,83.51
2023-05-20T23:15:52.842Z,83.54
2023-05-20T23:18:25.953Z,84.66
2023-05-20T23:20:59.449Z,84.15
2023-05-20T23:23:32.546Z,84.70
2023-05-20T23:26:14.546Z,84.87
2023-05-20T23:28:47.852Z,85.22
2023-05-20T23:31:22.657Z,85.40
2023-05-20T23:33:57.878Z,85.76
2023-05-20T23:36:34.575Z,86.03
2023-05-20T23:39:07.909Z,86.26
2023-05-20T23:41:40.956Z,86.87
2023-05-20T23:44:22.865Z,87.23
2023-05-20T23:47:07.686Z,87.68
2023-05-20T23:49:41.600Z,87.36
2023-05-20T23:52:41.339Z,87.84
2023-05-20T23:55:15.167Z,87.93
2023-05-20T23:57:49.718Z,88.20
